Time;durP1;ratioP1;P1;durP2;ratioP2;P2;SDS_P1;SDS_P2;PMS_P1;PMS_P2;Temp;Humidity;BMP_temperature;BMP_pressure;BME280_temperature;BME280_humidity;BME280_pressure;Samples;Min_cycle;Max_cycle;Signal;HPM_P1;HPM_P2
2022/12/20 00:00:43;;;;;;;15.68;6.97;;;;;;;-1.85;100.00;96162.72;5026152;28;20048;-72
2022/12/20 00:03:14;;;;;;;16.45;6.28;;;;;;;-1.87;100.00;96156.94;5029016;28;20053;-73
2022/12/20 00:05:41;;;;;;;16.45;6.65;;;;;;;-1.96;100.00;96159.59;5020436;28;20068;-73
2022/12/20 00:08:07;;;;;;;16.92;7.00;;;;;;;-2.00;100.00;96158.31;5024995;28;20038;-73
2022/12/20 00:10:41;;;;;;;15.57;7.07;;;;;;;-2.00;100.00;96158.31;5024078;28;20140;-73
2022/12/20 00:13:07;;;;;;;14.55;7.00;;;;;;;-2.11;100.00;96156.19;5017221;28;20038;-73
2022/12/20 00:15:33;;;;;;;16.48;7.18;;;;;;;-2.05;100.00;96168.38;5027108;28;20042;-72
2022/12/20 00:18:00;;;;;;;19.48;7.65;;;;;;;-2.03;100.00;96158.66;5017608;28;20112;-73
2022/12/20 00:20:27;;;;;;;15.75;6.88;;;;;;;-2.05;100.00;96155.47;5025844;28;20052;-73
2022/12/20 00:22:52;;;;;;;16.15;7.72;;;;;;;-2.06;100.00;96158.22;5020112;28;20038;-73
2022/12/20 00:25:19;;;;;;;19.30;7.55;;;;;;;-2.13;100.00;96169.22;5018728;28;20042;-72
2022/12/20 00:27:46;;;;;;;14.48;6.80;;;;;;;-2.01;100.00;96161.06;5028854;28;20056;-72
2022/12/20 00:30:12;;;;;;;17.45;7.15;;;;;;;-2.12;100.00;96149.41;5015912;28;20111;-73
2022/12/20 00:32:38;;;;;;;13.13;6.18;;;;;;;-2.01;100.00;96143.84;5014170;28;20053;-72
2022/12/20 00:35:04;;;;;;;15.40;6.53;;;;;;;-1.98;100.00;96146.06;5024108;28;20451;-72
2022/12/20 00:37:30;;;;;;;15.30;5.93;;;;;;;-1.85;100.00;96139.50;5031773;28;20411;-72
2022/12/20 00:39:55;;;;;;;9.90;5.35;;;;;;;-1.84;100.00;96135.94;5026330;28;20057;-72
2022/12/20 00:42:21;;;;;;;14.32;6.40;;;;;;;-1.82;100.00;96141.75;5028023;28;20065;-72
2022/12/20 00:44:46;;;;;;;14.60;6.40;;;;;;;-1.82;100.00;96139.16;5019927;28;20049;-72
2022/12/20 00:47:12;;;;;;;12.88;6.47;;;;;;;-1.88;100.00;96134.69;5024407;28;20065;-73
2022/12/20 00:49:37;;;;;;;12.93;6.28;;;;;;;-1.92;100.00;96140.19;5026471;28;20037;-72
2022/12/20 00:52:03;;;;;;;12.25;6.05;;;;;;;-1.97;100.00;96137.38;5027371;28;20034;-72
2022/12/20 00:54:29;;;;;;;15.38;6.30;;;;;;;-1.81;100.00;96140.75;5013059;28;20060;-73
2022/12/20 00:56:54;;;;;;;11.27;5.45;;;;;;;-1.87;100.00;96133.72;5014324;28;20132;-73
2022/12/20 00:59:20;;;;;;;16.98;6.45;;;;;;;-1.93;100.00;96143.75;5021198;28;20427;-72
2022/12/20 01:01:46;;;;;;;15.23;6.90;;;;;;;-1.89;100.00;96143.44;5015289;28;20127;-72
2022/12/20 01:04:12;;;;;;;15.98;7.25;;;;;;;-1.84;100.00;96154.00;5023777;28;20492;-72
2022/12/20 01:06:38;;;;;;;13.93;6.03;;;;;;;-1.79;100.00;96164.63;5014144;28;20045;-72
2022/12/20 01:09:04;;;;;;;13.27;6.03;;;;;;;-1.77;100.00;96157.50;5028684;28;20488;-72
2022/12/20 01:11:35;;;;;;;11.73;5.97;;;;;;;-1.80;100.00;96157.84;5021132;28;20042;-72
2022/12/20 01:14:07;;;;;;;13.05;6.28;;;;;;;-1.84;100.00;96151.44;5024153;28;20042;-72
2022/12/20 01:16:44;;;;;;;14.43;6.82;;;;;;;-1.78;100.00;96150.72;5012304;28;20564;-72
2022/12/20 01:19:14;;;;;;;15.50;6.95;;;;;;;-1.76;100.00;96148.78;5020839;28;20403;-72
2022/12/20 01:21:43;;;;;;;19.20;7.43;;;;;;;-1.83;100.00;96147.88;5017771;28;20045;-73
2022/12/20 01:24:16;;;;;;;13.43;6.85;;;;;;;-1.88;100.00;96145.00;5024886;28;20054;-72
2022/12/20 01:26:43;;;;;;;15.32;6.38;;;;;;;-1.82;100.00;96145.13;5014422;28;20049;-72
2022/12/20 01:29:09;;;;;;;13.20;6.60;;;;;;;-1.81;100.00;96141.56;5023201;28;20053;-72
2022/12/20 01:31:35;;;;;;;14.40;6.45;;;;;;;-1.75;100.00;96135.69;5028609;28;20091;-72
2022/12/20 01:34:01;;;;;;;16.88;6.72;;;;;;;-1.76;100.00;96133.28;5022461;28;20492;-72
2022/12/20 01:36:30;;;;;;;16.30;6.03;;;;;;;-1.70;100.00;96127.41;5011715;28;20038;-72
2022/12/20 01:38:58;;;;;;;16.08;6.55;;;;;;;-1.76;100.00;96128.13;5017791;28;20539;-73
2022/12/20 01:41:24;;;;;;;15.15;6.43;;;;;;;-1.75;100.00;96129.75;5021706;28;20041;-72
2022/12/20 01:43:58;;;;;;;16.17;6.30;;;;;;;-1.81;100.00;96130.44;5017010;28;20038;-73
2022/12/20 01:46:30;;;;;;;14.93;5.90;;;;;;;-1.80;100.00;96121.72;5023551;28;20045;-72
2022/12/20 01:49:03;;;;;;;13.02;6.40;;;;;;;-1.77;100.00;96124.75;5022754;28;20037;-72
2022/12/20 01:51:33;;;;;;;22.40;7.00;;;;;;;-1.82;100.00;96118.53;5024824;28;20037;-73
2022/12/20 01:54:05;;;;;;;13.25;6.22;;;;;;;-1.79;100.00;96128.50;5030145;28;20038;-72
2022/12/20 01:56:31;;;;;;;15.23;6.22;;;;;;;-1.77;100.00;96132.50;5022305;28;20496;-72
2022/12/20 01:58:57;;;;;;;16.40;6.70;;;;;;;-1.83;100.00;96127.22;5022563;28;20033;-73
2022/12/20 02:01:24;;;;;;;10.45;5.20;;;;;;;-1.79;100.00;96123.34;5021427;28;20699;-71
2022/12/20 02:03:52;;;;;;;14.60;6.60;;;;;;;-1.86;100.00;96125.00;5022688;28;20122;-71
2022/12/20 02:06:23;;;;;;;15.55;5.97;;;;;;;-1.80;100.00;96129.47;5016506;28;20037;-72
2022/12/20 02:08:51;;;;;;;14.13;6.18;;;;;;;-1.75;100.00;96125.38;5024372;28;20048;-71
2022/12/20 02:11:35;;;;;;;15.25;6.25;;;;;;;-1.78;100.00;96125.72;5025718;28;20038;-72
2022/12/20 02:14:34;;;;;;;12.68;6.45;;;;;;;-1.79;100.00;96118.16;5025657;28;20092;-71
2022/12/20 02:17:11;;;;;;;15.98;6.30;;;;;;;-1.95;100.00;96109.59;5018239;28;20034;-71
2022/12/20 02:20:05;;;;;;;17.80;6.40;;;;;;;-2.02;100.00;96124.19;5022330;28;20064;-71
2022/12/20 02:23:05;;;;;;;19.23;6.78;;;;;;;-1.98;100.00;96125.44;5022019;28;20045;-70
2022/12/20 02:25:42;;;;;;;13.38;5.72;;;;;;;-1.85;100.00;96118.84;5019109;28;20092;-71
2022/12/20 02:28:26;;;;;;;13.13;6.30;;;;;;;-1.83;100.00;96116.91;5022200;28;20045;-72
2022/12/20 02:30:53;;;;;;;16.30;5.78;;;;;;;-1.81;100.00;96120.09;5014874;28;20056;-72
2022/12/20 02:33:23;;;;;;;14.85;5.70;;;;;;;-1.83;100.00;96116.91;5022370;28;20050;-73
2022/12/20 02:35:49;;;;;;;11.52;5.38;;;;;;;-1.81;100.00;96120.09;5010475;28;20129;-72
2022/12/20 02:38:33;;;;;;;11.52;5.60;;;;;;;-1.82;100.00;96121.91;5020470;28;20049;-72
2022/12/20 02:41:21;;;;;;;11.32;5.53;;;;;;;-1.87;100.00;96120.81;5026928;28;20048;-72
2022/12/20 02:46:37;;;;;;;12.05;5.10;;;;;;;-1.79;100.00;96120.75;5014581;28;20041;-72
2022/12/20 02:49:10;;;;;;;12.52;5.60;;;;;;;-1.86;100.00;96122.44;5025326;28;20029;-72
2022/12/20 02:51:36;;;;;;;11.05;4.97;;;;;;;-1.83;100.00;96116.91;5028335;28;20103;-72
2022/12/20 02:54:03;;;;;;;9.23;4.88;;;;;;;-1.77;100.00;96117.03;5030496;28;20411;-72
2022/12/20 02:56:43;;;;;;;13.30;4.43;;;;;;;-1.73;100.00;96101.97;5027512;28;20133;-72
2022/12/20 02:59:28;;;;;;;10.57;5.15;;;;;;;-1.80;100.00;96101.06;5015157;28;20080;-72
2022/12/20 03:01:55;;;;;;;12.18;5.72;;;;;;;-1.89;100.00;96107.31;5019955;28;20736;-72
2022/12/20 03:04:25;;;;;;;13.70;5.20;;;;;;;-1.94;100.00;96094.91;5009079;28;20678;-72
2022/12/20 03:07:03;;;;;;;10.18;4.55;;;;;;;-1.82;100.00;96095.31;5015461;28;20096;-72
2022/12/20 03:09:31;;;;;;;12.38;5.28;;;;;;;-1.85;100.00;96098.22;5028626;28;20420;-72
2022/12/20 03:11:56;;;;;;;9.10;4.47;;;;;;;-1.85;100.00;96082.72;5021085;28;20058;-72
2022/12/20 03:14:22;;;;;;;10.90;4.43;;;;;;;-1.80;100.00;96081.22;5019985;28;20120;-72
2022/12/20 03:16:48;;;;;;;9.75;4.82;;;;;;;-1.76;100.00;96097.16;5027514;28;20033;-72
2022/12/20 03:19:13;;;;;;;8.57;4.40;;;;;;;-1.77;100.00;96095.56;5022159;28;20052;-72
2022/12/20 03:21:39;;;;;;;9.30;3.83;;;;;;;-1.75;100.00;96106.53;5011935;28;20104;-72
2022/12/20 03:24:05;;;;;;;9.02;4.18;;;;;;;-1.70;100.00;96111.16;5015952;28;20038;-72
2022/12/20 03:26:30;;;;;;;9.77;4.05;;;;;;;-1.69;100.00;96103.22;5011368;28;20546;-72
2022/12/20 03:28:56;;;;;;;9.15;3.80;;;;;;;-1.68;100.00;96109.19;5027515;28;20438;-72
2022/12/20 03:31:21;;;;;;;9.00;4.15;;;;;;;-1.69;100.00;96108.38;5030344;28;20472;-72
2022/12/20 03:33:47;;;;;;;10.05;4.28;;;;;;;-1.70;100.00;96101.63;5027035;28;20037;-72
2022/12/20 03:36:13;;;;;;;7.80;4.07;;;;;;;-1.67;100.00;96096.09;5027792;28;20049;-72
2022/12/20 03:38:38;;;;;;;6.72;3.72;;;;;;;-1.69;100.00;96085.16;5021276;28;20411;-72
2022/12/20 03:41:04;;;;;;;9.23;3.63;;;;;;;-1.69;100.00;96074.03;5020228;28;20041;-72
2022/12/20 03:43:30;;;;;;;7.80;3.63;;;;;;;-1.72;100.00;96067.47;5029436;28;20583;-72
2022/12/20 03:45:55;;;;;;;10.10;4.13;;;;;;;-1.88;100.00;96067.59;5019602;28;20069;-72
2022/12/20 03:48:21;;;;;;;10.20;3.90;;;;;;;-1.83;100.00;96060.16;5018268;28;20042;-72
2022/12/20 03:50:46;;;;;;;9.40;4.30;;;;;;;-1.85;100.00;96056.94;5019360;28;20033;-71
2022/12/20 03:53:12;;;;;;;9.20;4.05;;;;;;;-1.80;100.00;96052.06;5015234;28;20045;-72
2022/12/20 03:55:37;;;;;;;7.03;3.42;;;;;;;-1.79;100.00;96053.66;5016563;28;20111;-72
2022/12/20 03:58:03;;;;;;;8.80;3.97;;;;;;;-1.83;100.00;96049.84;5026186;28;20041;-72
2022/12/20 04:00:28;;;;;;;9.38;3.78;;;;;;;-1.83;100.00;96055.00;5016816;28;20155;-72
2022/12/20 04:02:54;;;;;;;7.10;3.65;;;;;;;-1.78;100.00;96055.25;5025420;28;20049;-72
2022/12/20 04:05:20;;;;;;;8.32;3.65;;;;;;;-1.79;100.00;96056.25;5020247;28;20041;-72
2022/12/20 04:07:45;;;;;;;6.95;3.33;;;;;;;-1.82;100.00;96054.03;5028642;28;20069;-72
2022/12/20 04:10:11;;;;;;;8.30;3.17;;;;;;;-1.77;100.00;96069.75;5028505;28;20044;-72
2022/12/20 04:12:36;;;;;;;8.32;3.55;;;;;;;-1.68;100.00;96073.88;5028570;28;20038;-72
2022/12/20 04:15:02;;;;;;;6.13;3.35;;;;;;;-1.69;100.00;96067.09;5023477;28;20045;-72
2022/12/20 04:17:28;;;;;;;8.25;3.40;;;;;;;-1.69;100.00;96067.09;5022164;28;20069;-72
2022/12/20 04:19:53;;;;;;;9.13;3.50;;;;;;;-1.68;100.00;96079.03;5026727;28;20046;-72
2022/12/20 04:22:19;;;;;;;7.07;3.60;;;;;;;-1.69;100.00;96067.09;5025083;28;20065;-72
2022/12/20 04:24:46;;;;;;;9.13;3.45;;;;;;;-1.61;100.00;96072.16;5028749;28;20046;-71
2022/12/20 04:27:11;;;;;;;6.75;3.25;;;;;;;-1.64;100.00;96069.97;5024135;28;20049;-72
2022/12/20 04:29:37;;;;;;;8.65;3.65;;;;;;;-1.59;100.00;96072.78;5030860;28;20041;-73
2022/12/20 04:32:02;;;;;;;7.20;3.17;;;;;;;-1.60;100.00;96071.16;5021259;28;20114;-72
2022/12/20 04:34:28;;;;;;;8.13;3.70;;;;;;;-1.62;100.00;96067.19;5020286;28;20056;-72
2022/12/20 04:36:53;;;;;;;8.32;3.78;;;;;;;-1.56;100.00;96061.31;5030004;28;20091;-72
2022/12/20 04:39:19;;;;;;;7.60;3.45;;;;;;;-1.46;100.00;96061.03;5030826;28;20419;-72
2022/12/20 04:41:44;;;;;;;7.05;3.60;;;;;;;-1.51;100.00;96068.50;5021531;28;20583;-72
2022/12/20 04:44:10;;;;;;;8.05;3.60;;;;;;;-1.59;100.00;96067.63;5016104;28;20042;-72
2022/12/20 04:46:36;;;;;;;10.57;3.95;;;;;;;-1.48;100.00;96068.16;5031561;28;20042;-72
2022/12/20 04:49:02;;;;;;;10.40;3.45;;;;;;;-1.31;100.00;96064.38;5021762;28;20034;-72
2022/12/20 04:51:28;;;;;;;13.75;4.13;;;;;;;-1.37;100.00;96065.09;5022109;28;20045;-72
2022/12/20 04:53:54;;;;;;;8.40;4.07;;;;;;;-1.41;100.00;96058.69;5017115;28;20103;-71
2022/12/20 04:56:23;;;;;;;13.38;4.38;;;;;;;-1.46;100.00;96055.88;5024272;28;20041;-71
2022/12/20 04:58:50;;;;;;;9.95;3.92;;;;;;;-1.49;100.00;96048.50;5024599;28;20045;-72
2022/12/20 05:01:16;;;;;;;10.38;3.47;;;;;;;-1.52;100.00;96046.25;5023957;28;20495;-72
2022/12/20 05:03:43;;;;;;;9.02;3.47;;;;;;;-1.51;100.00;96037.53;5022735;28;20120;-72
2022/12/20 05:06:09;;;;;;;9.80;3.63;;;;;;;-1.50;100.00;96033.97;5017047;28;20103;-73
2022/12/20 05:08:36;;;;;;;7.70;3.67;;;;;;;-1.45;100.00;96032.47;5020241;28;20566;-72
2022/12/20 05:11:02;;;;;;;8.80;3.38;;;;;;;-1.44;100.00;96022.91;5024727;28;20033;-72
2022/12/20 05:13:27;;;;;;;9.00;3.17;;;;;;;-1.42;100.00;96020.97;5023385;28;20038;-72
2022/12/20 05:15:54;;;;;;;6.38;3.03;;;;;;;-1.41;100.00;96019.97;5012787;28;20103;-72
2022/12/20 05:18:20;;;;;;;8.50;2.95;;;;;;;-1.38;100.00;96016.22;5025157;28;20038;-72
2022/12/20 05:20:47;;;;;;;7.65;2.90;;;;;;;-1.37;100.00;96026.38;5032233;28;20042;-72
2022/12/20 05:26:16;;;;;;;8.45;3.60;;;;;;;-1.40;100.00;96008.69;5021132;28;20038;-72
2022/12/20 05:28:41;;;;;;;6.97;3.00;;;;;;;-1.46;100.00;96009.41;5018375;28;20495;-72
2022/12/20 05:31:07;;;;;;;6.40;3.17;;;;;;;-1.47;100.00;96012.97;5012269;28;20053;-72
2022/12/20 05:33:33;;;;;;;8.00;3.40;;;;;;;-1.51;100.00;96011.72;5027515;28;20041;-72
2022/12/20 05:35:58;;;;;;;7.35;3.10;;;;;;;-1.49;100.00;96005.41;5023870;28;20643;-71
2022/12/20 05:38:24;;;;;;;6.30;3.50;;;;;;;-1.53;100.00;96003.38;5020323;28;20511;-72
2022/12/20 05:40:50;;;;;;;8.00;3.28;;;;;;;-1.51;100.00;96006.56;5013129;28;20088;-72
2022/12/20 05:43:19;;;;;;;8.15;3.20;;;;;;;-1.51;100.00;96006.56;5019639;28;20042;-72
2022/12/20 05:45:47;;;;;;;8.52;2.90;;;;;;;-1.50;100.00;96003.00;5019825;28;20041;-72
2022/12/20 05:48:12;;;;;;;6.90;3.28;;;;;;;-1.57;100.00;95993.41;5011459;28;20100;-72
2022/12/20 05:50:38;;;;;;;7.40;3.25;;;;;;;-1.54;100.00;95996.59;5020058;28;20038;-72
2022/12/20 05:53:04;;;;;;;7.15;3.03;;;;;;;-1.52;100.00;95984.28;5017512;28;20049;-72
2022/12/20 05:55:29;;;;;;;7.38;3.38;;;;;;;-1.54;100.00;95987.06;5027898;28;20049;-72
2022/12/20 05:57:55;;;;;;;7.78;3.20;;;;;;;-1.58;100.00;95971.16;5028156;28;20037;-72
2022/12/20 06:00:20;;;;;;;7.03;3.45;;;;;;;-1.58;100.00;95966.00;5026780;28;20113;-72
2022/12/20 06:02:46;;;;;;;6.03;3.00;;;;;;;-1.55;100.00;95979.50;5022181;28;20045;-72
2022/12/20 06:05:11;;;;;;;6.32;3.40;;;;;;;-1.53;100.00;95977.56;5021730;28;20062;-72
2022/12/20 06:07:37;;;;;;;8.73;3.20;;;;;;;-1.61;100.00;95987.00;5021760;28;20512;-72
2022/12/20 06:10:03;;;;;;;7.38;3.13;;;;;;;-1.61;100.00;95987.00;5025388;28;20045;-72
2022/12/20 06:12:28;;;;;;;5.65;2.97;;;;;;;-1.62;100.00;95980.22;5021777;28;20423;-72
2022/12/20 06:14:54;;;;;;;7.32;2.95;;;;;;;-1.54;100.00;95987.06;5011319;28;20104;-72
2022/12/20 06:17:20;;;;;;;8.05;3.40;;;;;;;-1.55;100.00;95985.47;5031435;28;20037;-71
2022/12/20 06:19:46;;;;;;;6.80;3.10;;;;;;;-1.52;100.00;95989.47;5028453;28;20041;-72
2022/12/20 06:22:12;;;;;;;6.38;3.15;;;;;;;-1.55;100.00;95992.41;5012611;28;20042;-72
2022/12/20 06:24:38;;;;;;;9.35;3.70;;;;;;;-1.49;100.00;95989.13;5023541;28;20117;-72
2022/12/20 06:27:05;;;;;;;10.13;3.28;;;;;;;-1.48;100.00;95980.38;5027334;28;20499;-72
2022/12/20 06:29:32;;;;;;;7.55;3.15;;;;;;;-1.45;100.00;95974.84;5021374;28;20051;-72
2022/12/20 06:31:58;;;;;;;8.18;3.78;;;;;;;-1.44;100.00;95971.28;5021928;28;20033;-72
2022/12/20 06:34:24;;;;;;;5.53;2.90;;;;;;;-1.44;100.00;95984.19;5021899;28;20060;-72
2022/12/20 06:36:49;;;;;;;11.38;3.50;;;;;;;-1.44;100.00;95971.28;5027026;28;20034;-71
2022/12/20 06:39:15;;;;;;;6.75;3.20;;;;;;;-1.43;100.00;95980.63;5016208;28;20508;-72
2022/12/20 06:41:40;;;;;;;6.28;3.20;;;;;;;-1.43;100.00;95983.22;5030696;28;20042;-71
2022/12/20 06:44:12;;;;;;;6.80;3.40;;;;;;;-1.42;100.00;95979.66;5092056;27;20385;-70
2022/12/20 06:46:38;;;;;;;10.02;3.15;;;;;;;-1.43;100.00;95984.00;5104039;28;20040;-71
2022/12/20 06:49:03;;;;;;;10.48;3.55;;;;;;;-1.42;100.00;95984.84;5105764;28;20051;-70
2022/12/20 06:51:29;;;;;;;7.43;3.22;;;;;;;-1.44;100.00;95981.63;5107440;28;20033;-71
2022/12/20 06:53:54;;;;;;;11.02;3.40;;;;;;;-1.41;100.00;95978.66;5108674;28;20093;-70
2022/12/20 06:56:20;;;;;;;9.13;3.92;;;;;;;-1.40;100.00;95983.66;5106246;28;20045;-70
2022/12/20 06:58:46;;;;;;;6.70;3.25;;;;;;;-1.39;100.00;95976.72;5108041;28;20077;-70
2022/12/20 07:01:11;;;;;;;6.55;3.00;;;;;;;-1.40;100.00;95977.69;5096368;28;20020;-70
2022/12/20 07:03:37;;;;;;;14.23;4.15;;;;;;;-1.50;100.00;95972.03;5106800;28;20060;-70
2022/12/20 07:06:03;;;;;;;11.93;5.25;;;;;;;-1.52;100.00;95968.81;5113796;28;20039;-70
2022/12/20 07:08:28;;;;;;;7.68;3.78;;;;;;;-1.48;100.00;95964.88;5096110;28;20245;-71
2022/12/20 07:10:55;;;;;;;8.27;3.80;;;;;;;-1.43;100.00;95972.91;5067723;28;20072;-71
2022/12/20 07:13:20;;;;;;;11.30;3.75;;;;;;;-1.41;100.00;95970.91;5077584;28;20077;-72
2022/12/20 07:15:46;;;;;;;9.70;3.90;;;;;;;-1.29;100.00;95969.47;5072535;28;20040;-72
2022/12/20 07:18:11;;;;;;;10.02;4.13;;;;;;;-1.28;100.00;95965.91;5076080;28;20041;-72
2022/12/20 07:20:38;;;;;;;9.52;4.10;;;;;;;-1.28;100.00;95970.25;5080117;28;20040;-71
2022/12/20 07:23:04;;;;;;;7.88;3.63;;;;;;;-1.29;100.00;95974.63;5085041;28;20047;-72
2022/12/20 07:25:30;;;;;;;9.90;4.07;;;;;;;-1.32;100.00;95969.03;5078662;28;20060;-73
2022/12/20 07:27:56;;;;;;;9.60;3.88;;;;;;;-1.35;100.00;95970.22;5078042;28;20033;-72
2022/12/20 07:30:22;;;;;;;8.65;3.40;;;;;;;-1.31;100.00;95966.25;5073993;28;20060;-73
2022/12/20 07:32:47;;;;;;;10.95;3.80;;;;;;;-1.24;100.00;95967.13;5078728;28;20040;-71
2022/12/20 07:35:13;;;;;;;9.18;3.88;;;;;;;-1.20;100.00;95971.94;5084851;28;20044;-72
2022/12/20 07:37:40;;;;;;;10.13;4.40;;;;;;;-1.07;100.00;95964.31;5091023;28;20033;-72
2022/12/20 07:40:07;;;;;;;13.43;4.82;;;;;;;-1.05;100.00;95964.91;5095356;28;20530;-73
2022/12/20 07:42:32;;;;;;;13.20;4.97;;;;;;;-0.81;100.00;95957.78;5090656;28;20037;-71
2022/12/20 07:44:58;;;;;;;9.40;4.50;;;;;;;-1.03;100.00;95962.97;5088764;28;20039;-73
2022/12/20 07:47:23;;;;;;;7.82;3.95;;;;;;;-0.97;100.00;95972.56;5084847;28;20468;-71
2022/12/20 07:49:49;;;;;;;11.23;4.78;;;;;;;-0.95;100.00;95987.88;5083441;28;20051;-72
2022/12/20 07:52:17;;;;;;;16.27;4.55;;;;;;;-0.94;100.00;95981.72;5082277;28;20526;-72
2022/12/20 07:54:49;;;;;;;12.98;5.05;;;;;;;-0.89;100.00;95990.53;5066013;28;20041;-72
2022/12/20 07:57:21;;;;;;;11.70;4.47;;;;;;;-0.79;100.00;95990.22;5063969;28;20041;-72
2022/12/20 07:59:53;;;;;;;14.23;4.60;;;;;;;-0.84;100.00;95992.53;5051953;28;20036;-73
2022/12/20 08:02:26;;;;;;;10.45;4.82;;;;;;;-0.92;100.00;95990.91;5057288;28;20095;-71
2022/12/20 08:04:54;;;;;;;9.52;4.25;;;;;;;-0.81;100.00;95993.97;5059552;28;20064;-70
2022/12/20 08:07:19;;;;;;;11.10;4.65;;;;;;;-0.75;100.00;96000.97;5059295;28;20122;-71
2022/12/20 08:09:46;;;;;;;20.98;4.85;;;;;;;-0.72;100.00;95998.00;5071077;28;20143;-71
2022/12/20 08:12:14;;;;;;;14.48;4.88;;;;;;;-0.71;100.00;95991.84;5070332;28;20497;-70
2022/12/20 08:14:40;;;;;;;14.10;4.72;;;;;;;-0.65;100.00;95996.28;5052335;28;20056;-71
2022/12/20 08:17:05;;;;;;;14.23;5.20;;;;;;;-0.64;100.00;95997.88;5059178;28;20048;-71
2022/12/20 08:19:31;;;;;;;16.55;5.18;;;;;;;-0.68;100.00;95986.31;5055197;28;20099;-71
2022/12/20 08:21:56;;;;;;;21.30;5.18;;;;;;;-0.65;100.00;95988.53;5066981;28;20048;-71
2022/12/20 08:24:22;;;;;;;9.57;4.30;;;;;;;-0.58;100.00;95986.78;5066579;28;20071;-71
2022/12/20 08:26:47;;;;;;;17.55;5.65;;;;;;;-0.54;100.00;95980.25;5064650;28;20045;-72
2022/12/20 08:29:13;;;;;;;12.32;4.90;;;;;;;-0.48;100.00;95988.25;5067097;28;20048;-70
2022/12/20 08:31:41;;;;;;;10.40;5.22;;;;;;;-0.45;100.00;95985.31;5067419;28;20045;-71
2022/12/20 08:34:07;;;;;;;11.70;4.63;;;;;;;-0.48;100.00;95975.34;5070695;28;20040;-70
2022/12/20 08:36:33;;;;;;;14.55;4.70;;;;;;;-0.42;100.00;95969.41;5065105;28;20029;-70
2022/12/20 08:39:03;;;;;;;14.98;5.13;;;;;;;-0.39;100.00;95974.19;5062573;28;20118;-70
2022/12/20 08:41:29;;;;;;;14.93;5.38;;;;;;;-0.34;100.00;95977.03;5067644;28;20044;-71
2022/12/20 08:43:55;;;;;;;11.48;5.05;;;;;;;-0.36;100.00;95984.16;5063191;28;20037;-72
2022/12/20 08:46:20;;;;;;;10.65;4.75;;;;;;;-0.32;100.00;95980.22;5062306;28;20075;-72
2022/12/20 08:48:46;;;;;;;11.77;5.45;;;;;;;-0.32;100.00;95980.22;5058401;28;20478;-70
2022/12/20 08:51:11;;;;;;;14.02;5.15;;;;;;;-0.27;100.00;95988.22;5067726;28;20426;-70
2022/12/20 08:53:38;;;;;;;15.10;5.55;;;;;;;-0.26;100.00;95989.81;5071387;28;20048;-70
2022/12/20 08:56:09;;;;;;;13.45;5.75;;;;;;;-0.28;100.00;95996.97;5067396;28;20048;-70
2022/12/20 08:58:35;;;;;;;10.55;5.03;;;;;;;-0.21;100.00;95984.88;5062473;28;20043;-71
2022/12/20 09:01:04;;;;;;;12.23;5.20;;;;;;;-0.22;100.00;95975.50;5060317;28;20036;-72
2022/12/20 09:03:30;;;;;;;15.85;5.65;;;;;;;-0.16;100.00;95980.91;5070670;28;20040;-71
2022/12/20 09:05:57;;;;;;;14.05;5.75;;;;;;;-0.12;100.00;95979.56;5067977;28;20048;-71
2022/12/20 09:08:22;;;;;;;12.75;5.45;;;;;;;-0.03;100.00;95973.22;5068725;28;20048;-71
2022/12/20 09:10:49;;;;;;;15.60;5.68;;;;;;;0.06;100.00;95974.69;5069447;28;20048;-71
2022/12/20 09:13:14;;;;;;;12.60;5.50;;;;;;;0.15;100.00;95973.53;5067404;28;20051;-70
2022/12/20 09:15:41;;;;;;;13.18;5.18;;;;;;;0.28;100.00;95974.59;5063914;28;20120;-71
2022/12/20 09:18:06;;;;;;;15.57;6.00;;;;;;;0.22;100.00;95970.97;5061943;28;20048;-70
2022/12/20 09:20:32;;;;;;;14.13;5.40;;;;;;;0.24;100.00;95968.19;5055148;28;20036;-71
2022/12/20 09:22:59;;;;;;;15.73;6.35;;;;;;;0.17;100.00;95962.97;5069891;28;20033;-72
2022/12/20 09:25:26;;;;;;;13.57;6.15;;;;;;;0.30;100.00;95957.06;5070103;28;20085;-71
2022/12/20 09:27:55;;;;;;;13.98;5.35;;;;;;;0.39;100.00;95961.09;5068902;28;20043;-72
2022/12/20 09:30:22;;;;;;;11.52;5.97;;;;;;;0.51;100.00;95938.81;5069691;28;20051;-70
2022/12/20 09:32:47;;;;;;;13.98;5.45;;;;;;;0.51;100.00;95938.81;5059333;28;20422;-72
2022/12/20 09:35:13;;;;;;;14.68;5.07;;;;;;;0.58;100.00;95938.03;5060433;28;20040;-72
2022/12/20 09:37:38;;;;;;;14.38;5.78;;;;;;;0.47;100.00;95937.59;5067882;28;20636;-72
2022/12/20 09:40:06;;;;;;;16.05;6.00;;;;;;;0.56;100.00;95938.25;5071440;28;20044;-72
2022/12/20 09:42:31;;;;;;;18.33;5.65;;;;;;;0.60;100.00;95943.81;5067919;28;20035;-72
2022/12/20 09:45:06;;;;;;;11.93;5.40;;;;;;;0.63;100.00;95931.28;5063864;28;20045;-72
2022/12/20 09:47:34;;;;;;;16.88;7.03;;;;;;;0.74;100.00;95932.50;5065345;28;20089;-72
2022/12/20 09:50:02;;;;;;;13.05;5.70;;;;;;;0.81;100.00;95919.56;5064849;28;20048;-70
2022/12/20 09:52:43;;;;;;;13.90;6.35;;;;;;;0.85;100.00;95916.38;5067005;28;20041;-73
2022/12/20 09:55:33;;;;;;;17.40;6.40;;;;;;;1.05;100.00;95913.00;5071326;28;20048;-71
2022/12/20 09:58:16;;;;;;;15.18;6.43;;;;;;;1.09;100.00;95919.34;5062915;28;20393;-71
2022/12/20 10:00:45;;;;;;;12.90;6.38;;;;;;;1.14;100.00;95911.78;5068371;28;20041;-71
2022/12/20 10:03:18;;;;;;;14.85;6.47;;;;;;;1.22;100.00;95908.19;5062612;28;20116;-72
2022/12/20 10:05:51;;;;;;;20.75;6.70;;;;;;;1.39;100.00;95898.22;5059620;28;20051;-72
2022/12/20 10:08:55;;;;;;;15.43;7.25;;;;;;;1.60;100.00;95901.59;5058252;28;20041;-71
2022/12/20 10:11:39;;;;;;;10.93;6.20;;;;;;;1.68;100.00;95898.75;5070249;28;20047;-72
2022/12/20 10:14:28;;;;;;;17.42;7.95;;;;;;;2.02;100.00;95899.47;5068331;28;20125;-73
2022/12/20 10:17:03;;;;;;;16.02;7.57;;;;;;;1.99;100.00;95892.09;5063555;28;20044;-74
2022/12/20 10:19:43;;;;;;;17.05;7.13;;;;;;;2.10;100.00;95904.44;5064225;28;20046;-74
2022/12/20 10:22:22;;;;;;;15.70;6.88;;;;;;;1.87;100.00;95890.13;5065319;28;20033;-75
2022/12/20 10:25:10;;;;;;;13.77;6.85;;;;;;;1.93;100.00;95892.94;5070615;28;20067;-74
2022/12/20 10:27:41;;;;;;;19.00;7.22;;;;;;;1.96;100.00;95892.50;5064094;28;20033;-74
2022/12/20 10:30:15;;;;;;;18.98;8.10;;;;;;;2.04;100.00;95894.84;5068484;28;20437;-74
2022/12/20 10:32:47;;;;;;;21.17;8.57;;;;;;;1.85;100.00;95886.97;5067977;28;20411;-74
2022/12/20 10:35:32;;;;;;;19.60;8.30;;;;;;;2.14;100.00;95892.66;5070280;28;20047;-73
2022/12/20 10:38:05;;;;;;;24.67;9.38;;;;;;;2.36;100.00;95879.34;5067948;28;20044;-74
2022/12/20 10:40:36;;;;;;;21.75;9.43;;;;;;;2.46;100.00;95887.50;5069542;28;20468;-74
2022/12/20 10:43:03;;;;;;;20.63;8.95;;;;;;;2.47;100.00;95873.50;5069235;28;20036;-74
2022/12/20 10:45:36;;;;;;;21.77;9.20;;;;;;;2.37;100.00;95873.13;5066994;28;20072;-74
2022/12/20 10:48:24;;;;;;;14.02;6.82;;;;;;;2.44;100.00;95863.50;5067518;28;20041;-75
2022/12/20 10:51:11;;;;;;;20.75;6.80;;;;;;;2.64;100.00;95857.41;5050015;28;20071;-75
2022/12/20 10:54:18;;;;;;;12.63;6.50;;;;;;;2.54;100.00;95848.28;5068832;28;20090;-75
2022/12/20 10:56:55;;;;;;;13.77;6.60;;;;;;;2.72;100.00;95838.97;5069412;28;20473;-75
2022/12/20 10:59:32;;;;;;;16.83;6.07;;;;;;;2.78;100.00;95843.31;5066212;28;20040;-75
2022/12/20 11:01:57;;;;;;;19.15;6.80;;;;;;;2.80;100.00;95841.28;5066009;28;20071;-75
2022/12/20 11:04:31;;;;;;;15.95;6.55;;;;;;;2.90;100.00;95836.44;5066941;28;20410;-75
2022/12/20 11:06:59;;;;;;;16.40;7.55;;;;;;;3.15;100.00;95820.00;5050218;28;20125;-76
2022/12/20 11:09:36;;;;;;;19.10;7.07;;;;;;;3.34;100.00;95820.03;5049608;28;20044;-75
2022/12/20 11:12:16;;;;;;;16.70;6.22;;;;;;;3.34;100.00;95817.44;5052430;28;20122;-75
2022/12/20 11:14:46;;;;;;;17.45;6.18;;;;;;;3.40;100.00;95819.16;5068669;28;20119;-76
2022/12/20 11:17:11;;;;;;;13.27;6.45;;;;;;;3.28;100.00;95822.47;5063421;28;20551;-75
2022/12/20 11:19:45;;;;;;;12.60;6.00;;;;;;;3.42;100.00;95814.53;5065367;28;20037;-76
2022/12/20 11:22:25;;;;;;;13.93;6.37;;;;;;;3.56;100.00;95805.59;5065421;28;20040;-76
2022/12/20 11:25:30;;;;;;;14.32;6.75;;;;;;;3.45;100.00;95811.53;5062398;28;20778;-76
2022/12/20 11:28:08;;;;;;;13.05;5.55;;;;;;;3.72;100.00;95806.00;5058980;28;20418;-76
2022/12/20 11:30:47;;;;;;;13.35;6.20;;;;;;;3.86;100.00;95791.81;5070115;28;20492;-75
2022/12/20 11:33:22;;;;;;;15.60;5.88;;;;;;;4.49;100.00;95794.97;5065421;28;20131;-76
2022/12/20 11:35:54;;;;;;;12.95;5.55;;;;;;;4.99;100.00;95794.59;5072517;28;20036;-75